createdAt,value
2023-03-14T09:44:20.928Z,93070.00
2023-03-14T09:48:20.985Z,93072.00
2023-03-14T09:52:21.040Z,93070.00
2023-03-14T09:56:21.526Z,93076.00
2023-03-14T10:00:21.215Z,93082.00
2023-03-14T10:04:21.472Z,93068.00
2023-03-14T10:08:21.457Z,93064.00
2023-03-14T10:12:21.388Z,93062.00
2023-03-14T10:16:21.522Z,93046.00
2023-03-14T10:20:21.621Z,93042.00
2023-03-14T10:24:21.480Z,93042.00
2023-03-14T10:28:22.030Z,93023.00
2023-03-14T10:32:22.081Z,93032.00
2023-03-14T10:40:41.123Z,93036.00
2023-03-14T10:44:41.137Z,93038.00
2023-03-14T10:48:41.134Z,93040.00
2023-03-14T10:53:00.312Z,93028.00
2023-03-14T10:56:41.794Z,93025.00
2023-03-14T11:00:40.733Z,93028.00
2023-03-14T11:04:40.756Z,93027.00
2023-03-14T11:08:41.151Z,93019.00
2023-03-14T11:12:40.625Z,93017.00
2023-03-14T11:16:40.666Z,93015.00
2023-03-14T11:20:41.486Z,93005.00
2023-03-14T11:24:40.528Z,92993.00
2023-03-14T11:28:40.624Z,92995.00
2023-03-14T11:32:40.696Z,92995.00
2023-03-14T11:36:40.564Z,93001.00
2023-03-14T11:40:40.478Z,92999.00
2023-03-14T11:44:40.452Z,92987.00
2023-03-14T11:48:40.805Z,92978.00
2023-03-14T11:52:40.423Z,92966.00
2023-03-14T11:56:40.358Z,92968.00
2023-03-14T12:00:40.307Z,92970.00
2023-03-14T12:04:40.660Z,92968.00
2023-03-14T12:08:40.244Z,92976.00
2023-03-14T12:12:40.182Z,92978.00
2023-03-14T12:16:41.546Z,92980.00
2023-03-14T12:20:40.836Z,92983.00
2023-03-14T12:24:40.093Z,92981.00
2023-03-14T12:28:40.056Z,92983.00
2023-03-14T12:32:40.085Z,92978.00
2023-03-14T12:36:40.018Z,92968.00
2023-03-14T12:40:39.949Z,92960.00
2023-03-14T12:44:40.026Z,92952.00
2023-03-14T12:48:40.184Z,92950.00
2023-03-14T12:52:42.208Z,92942.00
2023-03-14T12:56:40.290Z,92934.00
2023-03-14T13:00:40.287Z,92936.00
2023-03-14T13:04:40.793Z,92933.00
2023-03-14T13:08:40.758Z,92933.00
2023-03-14T13:12:40.193Z,92936.00
2023-03-14T13:16:40.166Z,92938.00
